createdAt,value
2018-05-17T00:01:27.385Z,9.42
2018-05-17T00:04:30.037Z,9.39
2018-05-17T00:07:32.500Z,9.36
2018-05-17T00:10:34.980Z,9.29
2018-05-17T00:13:37.458Z,9.24
2018-05-17T00:16:39.960Z,9.27
2018-05-17T00:19:42.466Z,9.36
2018-05-17T00:22:44.898Z,9.33
2018-05-17T00:25:47.414Z,9.31
2018-05-17T00:28:49.906Z,9.35
2018-05-17T00:31:52.419Z,9.23
2018-05-17T00:34:54.876Z,9.29
2018-05-17T00:37:57.407Z,9.26
2018-05-17T00:41:00.900Z,9.31
2018-05-17T00:44:03.375Z,9.34
2018-05-17T00:47:05.799Z,9.29
2018-05-17T00:50:08.265Z,9.32
2018-05-17T00:53:22.533Z,9.30
2018-05-17T00:56:25.106Z,9.34
2018-05-17T00:59:27.580Z,9.23
2018-05-17T01:02:30.081Z,9.23
2018-05-17T01:05:32.596Z,9.29
2018-05-17T01:08:35.106Z,9.20
2018-05-17T01:11:37.658Z,9.23
2018-05-17T01:14:40.116Z,9.24
2018-05-17T01:17:42.580Z,9.15
2018-05-17T01:20:45.114Z,9.17
2018-05-17T01:23:47.606Z,9.16
2018-05-17T01:26:50.090Z,9.25
2018-05-17T01:29:52.532Z,9.14
2018-05-17T01:32:55.005Z,9.12
2018-05-17T01:35:57.441Z,9.07
2018-05-17T01:38:59.915Z,9.06
2018-05-17T01:42:02.347Z,9.10
2018-05-17T01:45:04.851Z,9.06
2018-05-17T01:48:07.898Z,9.04
2018-05-17T01:51:11.305Z,9.04
2018-05-17T01:54:13.814Z,9.02
2018-05-17T01:57:17.500Z,9.04
2018-05-17T02:00:20.055Z,8.91
2018-05-17T02:03:22.625Z,9.00
2018-05-17T02:06:25.067Z,8.93
2018-05-17T02:09:28.732Z,8.91
2018-05-17T02:12:31.236Z,8.87
2018-05-17T02:15:35.015Z,8.90
2018-05-17T02:18:37.485Z,8.85
2018-05-17T02:21:39.912Z,8.86
2018-05-17T02:24:42.485Z,8.81
2018-05-17T02:27:44.968Z,8.85
2018-05-17T02:30:47.437Z,8.89
2018-05-17T02:33:49.918Z,8.83
2018-05-17T02:36:52.336Z,8.81
2018-05-17T02:39:54.828Z,8.76
2018-05-17T02:42:57.304Z,8.78
2018-05-17T02:45:59.812Z,8.71
2018-05-17T02:49:02.398Z,8.73
2018-05-17T02:52:04.921Z,8.76
2018-05-17T02:55:07.365Z,8.72
2018-05-17T02:58:09.858Z,8.71
2018-05-17T03:01:12.408Z,8.76
2018-05-17T03:04:14.913Z,8.71
2018-05-17T03:07:17.417Z,8.66
2018-05-17T03:10:19.917Z,8.64
2018-05-17T03:13:23.781Z,8.70
2018-05-17T03:16:27.136Z,8.74
2018-05-17T03:19:32.543Z,8.70
2018-05-17T03:22:35.076Z,8.64
2018-05-17T03:25:38.464Z,8.59
2018-05-17T03:28:40.948Z,8.62
2018-05-17T03:31:43.378Z,8.62
2018-05-17T03:34:45.835Z,8.59
2018-05-17T03:37:48.288Z,8.65
2018-05-17T03:40:50.721Z,8.59
2018-05-17T03:43:53.239Z,8.59
2018-05-17T03:46:55.735Z,8.71
2018-05-17T03:49:58.289Z,8.72
2018-05-17T03:53:00.789Z,8.72
2018-05-17T03:56:03.249Z,8.65
2018-05-17T03:59:05.709Z,8.70
2018-05-17T04:02:20.078Z,8.61
2018-05-17T04:05:34.473Z,8.62
2018-05-17T04:08:36.943Z,8.64
2018-05-17T04:11:39.432Z,8.65
2018-05-17T04:14:42.801Z,8.71
2018-05-17T04:17:45.348Z,8.62
2018-05-17T04:20:47.843Z,8.65
2018-05-17T04:23:50.373Z,8.64
2018-05-17T04:26:52.857Z,8.73
2018-05-17T04:29:55.323Z,8.75
2018-05-17T04:32:57.762Z,8.89
2018-05-17T04:36:00.277Z,8.91
2018-05-17T04:39:02.757Z,8.89
2018-05-17T04:42:05.247Z,8.81
2018-05-17T04:45:07.822Z,8.81
2018-05-17T04:48:10.294Z,8.72
2018-05-17T04:51:12.742Z,8.81
2018-05-17T04:54:15.314Z,8.86
2018-05-17T04:57:17.840Z,8.75
2018-05-17T05:00:20.362Z,8.77
2018-05-17T05:03:22.903Z,8.74
2018-05-17T05:06:25.414Z,8.72
2018-05-17T05:09:27.901Z,8.71
2018-05-17T05:12:30.412Z,8.67
2018-05-17T05:15:32.948Z,8.62
2018-05-17T05:18:35.457Z,8.64
2018-05-17T05:21:37.960Z,8.63
2018-05-17T05:24:40.629Z,8.62
2018-05-17T05:27:43.124Z,8.59
2018-05-17T05:30:45.573Z,8.68
2018-05-17T05:33:48.048Z,8.67
2018-05-17T05:36:50.509Z,8.65
2018-05-17T05:39:52.994Z,8.66
2018-05-17T05:42:55.405Z,8.71
2018-05-17T05:45:57.898Z,8.82
2018-05-17T05:49:00.479Z,8.74
2018-05-17T05:52:03.085Z,8.78
2018-05-17T05:55:05.573Z,8.79
2018-05-17T05:58:08.011Z,8.83
2018-05-17T06:01:10.485Z,8.79
2018-05-17T06:04:12.964Z,8.80
2018-05-17T06:07:15.425Z,8.82
2018-05-17T06:10:17.863Z,8.88
2018-05-17T06:13:20.359Z,8.96
2018-05-17T06:16:23.009Z,8.89
2018-05-17T06:19:25.438Z,8.83
2018-05-17T06:22:27.976Z,8.90
2018-05-17T06:25:30.464Z,9.00
2018-05-17T06:28:32.961Z,9.11
2018-05-17T06:31:35.449Z,9.04
2018-05-17T06:34:38.478Z,9.11
2018-05-17T06:37:41.037Z,9.20
2018-05-17T06:40:43.455Z,9.21
2018-05-17T06:43:45.908Z,9.21
2018-05-17T06:46:48.371Z,9.38
2018-05-17T06:49:50.844Z,9.40
2018-05-17T06:52:53.423Z,9.40
2018-05-17T06:55:55.878Z,9.49
2018-05-17T06:58:58.420Z,9.55
2018-05-17T07:02:00.904Z,9.75
2018-05-17T07:05:03.414Z,9.75
2018-05-17T07:08:05.919Z,9.71
2018-05-17T07:11:08.386Z,9.83
2018-05-17T07:14:10.879Z,9.95
2018-05-17T07:17:13.311Z,10.08
2018-05-17T07:20:15.818Z,10.03
2018-05-17T07:23:18.310Z,10.06
2018-05-17T07:26:20.748Z,10.19
2018-05-17T07:29:23.255Z,10.14
2018-05-17T07:32:25.740Z,10.30
2018-05-17T07:35:28.214Z,10.44
2018-05-17T07:38:30.664Z,10.45
2018-05-17T07:41:33.079Z,10.74
2018-05-17T07:44:35.576Z,11.05
2018-05-17T07:47:38.096Z,11.00
2018-05-17T07:50:40.546Z,10.86
2018-05-17T07:53:43.164Z,10.97
2018-05-17T07:56:45.769Z,11.14
2018-05-17T07:59:48.250Z,11.14
2018-05-17T08:02:50.695Z,11.25
2018-05-17T08:05:53.176Z,11.46
2018-05-17T08:08:55.750Z,11.24
2018-05-17T08:11:58.269Z,11.61
2018-05-17T08:15:00.840Z,11.62
2018-05-17T08:18:03.485Z,11.30
2018-05-17T08:21:05.935Z,11.28
2018-05-17T08:24:08.399Z,11.45
2018-05-17T08:27:10.891Z,11.23
2018-05-17T08:30:13.384Z,11.36
2018-05-17T08:33:15.836Z,11.78
2018-05-17T08:36:18.355Z,11.75
2018-05-17T08:39:20.754Z,11.71
2018-05-17T08:42:23.209Z,11.77
2018-05-17T08:45:25.688Z,12.28
2018-05-17T08:48:28.257Z,12.42
2018-05-17T08:51:30.690Z,12.58
2018-05-17T08:54:33.168Z,12.47
2018-05-17T08:57:35.636Z,12.19
2018-05-17T09:00:38.081Z,11.86
2018-05-17T09:03:40.560Z,12.35
2018-05-17T09:06:43.010Z,12.43
2018-05-17T09:09:45.511Z,12.67
2018-05-17T09:12:48.011Z,12.87
2018-05-17T09:15:50.622Z,12.96
2018-05-17T09:18:53.157Z,12.47
2018-05-17T09:21:55.597Z,12.53
2018-05-17T09:24:58.112Z,12.88
2018-05-17T09:28:00.612Z,13.21
2018-05-17T09:31:03.105Z,12.76
2018-05-17T09:34:05.676Z,13.21
2018-05-17T09:37:08.128Z,13.65
2018-05-17T09:40:10.589Z,13.37
2018-05-17T09:43:13.057Z,13.34
2018-05-17T09:46:15.523Z,13.31
2018-05-17T09:49:18.002Z,13.33
2018-05-17T09:52:20.476Z,13.22
2018-05-17T09:55:22.985Z,13.46
2018-05-17T09:58:25.466Z,13.55
2018-05-17T10:01:27.915Z,13.14
2018-05-17T10:04:30.426Z,13.71
2018-05-17T10:07:32.916Z,13.54
2018-05-17T10:10:35.477Z,14.00
2018-05-17T10:13:37.950Z,13.45
2018-05-17T10:16:40.526Z,13.47
2018-05-17T10:19:43.010Z,13.76
2018-05-17T10:22:45.567Z,13.93
2018-05-17T10:25:48.048Z,13.68
2018-05-17T10:28:50.557Z,13.59
2018-05-17T10:31:53.016Z,13.68
2018-05-17T10:34:55.597Z,13.89
2018-05-17T10:37:58.097Z,13.88
2018-05-17T10:41:00.574Z,13.97
2018-05-17T10:44:03.056Z,14.10
2018-05-17T10:47:05.541Z,14.33
2018-05-17T10:50:08.053Z,14.40
2018-05-17T10:53:10.559Z,14.36
2018-05-17T10:56:13.105Z,14.67
2018-05-17T10:59:15.567Z,14.60
2018-05-17T11:02:18.065Z,14.64
2018-05-17T11:05:20.540Z,14.37
2018-05-17T11:08:23.035Z,14.68
2018-05-17T11:11:25.526Z,14.56
2018-05-17T11:14:27.971Z,15.02
2018-05-17T11:17:30.471Z,14.55
2018-05-17T11:20:32.941Z,14.84
2018-05-17T11:23:35.436Z,14.70
2018-05-17T11:26:37.947Z,14.88
2018-05-17T11:29:40.422Z,14.89
2018-05-17T11:32:42.963Z,14.92
2018-05-17T11:35:45.468Z,14.87
2018-05-17T11:38:47.956Z,15.00
2018-05-17T11:41:50.441Z,15.28
2018-05-17T11:44:52.872Z,15.26
2018-05-17T11:47:55.372Z,15.44
2018-05-17T11:50:57.943Z,15.73
2018-05-17T11:54:00.434Z,15.89
2018-05-17T11:57:02.941Z,15.80
2018-05-17T12:00:05.528Z,15.41
2018-05-17T12:03:07.992Z,15.51
2018-05-17T12:06:10.544Z,15.89
2018-05-17T12:09:13.098Z,15.87
2018-05-17T12:12:15.652Z,16.00
2018-05-17T12:15:18.097Z,16.22
2018-05-17T12:18:20.688Z,15.78
2018-05-17T12:21:23.195Z,15.29
2018-05-17T12:24:25.746Z,15.46
2018-05-17T12:27:28.304Z,15.86
2018-05-17T12:30:30.767Z,16.08
2018-05-17T12:33:33.276Z,15.87
2018-05-17T12:36:35.792Z,15.30
2018-05-17T12:39:38.261Z,15.74
2018-05-17T12:42:40.909Z,15.73
2018-05-17T12:45:43.452Z,15.73
2018-05-17T12:48:46.014Z,15.97
2018-05-17T12:51:48.525Z,15.89
2018-05-17T12:54:51.157Z,16.08
2018-05-17T12:57:53.694Z,15.91
2018-05-17T13:00:56.208Z,15.75
2018-05-17T13:03:58.809Z,16.11
2018-05-17T13:07:01.471Z,16.24
2018-05-17T13:10:03.954Z,16.26
2018-05-17T13:13:06.509Z,16.27
2018-05-17T13:16:08.874Z,16.37
2018-05-17T13:19:11.347Z,16.48
2018-05-17T13:22:13.822Z,16.31
2018-05-17T13:25:16.316Z,16.04
2018-05-17T13:28:18.863Z,15.99
2018-05-17T13:31:21.364Z,16.17
2018-05-17T13:34:23.839Z,16.36
2018-05-17T13:37:26.410Z,16.77
2018-05-17T13:40:29.551Z,16.60
2018-05-17T13:43:32.057Z,16.27
2018-05-17T13:46:34.574Z,16.43
2018-05-17T13:49:37.088Z,16.49
2018-05-17T13:52:39.632Z,16.63
2018-05-17T13:55:42.124Z,16.78
2018-05-17T13:58:44.751Z,16.51
2018-05-17T14:01:47.279Z,16.28
2018-05-17T14:04:49.759Z,16.40
2018-05-17T14:07:52.273Z,16.30
2018-05-17T14:10:54.777Z,16.26
2018-05-17T14:13:57.246Z,15.84
2018-05-17T14:16:59.758Z,15.67
2018-05-17T14:20:02.264Z,15.89
2018-05-17T14:23:04.784Z,15.76
2018-05-17T14:26:07.279Z,15.56
2018-05-17T14:29:09.865Z,15.04
2018-05-17T14:32:12.384Z,15.12
2018-05-17T14:35:14.900Z,15.28
2018-05-17T14:38:17.357Z,14.95
2018-05-17T14:41:19.899Z,14.94
2018-05-17T14:44:22.410Z,14.84
2018-05-17T14:47:24.875Z,14.70
2018-05-17T14:50:27.370Z,14.58
2018-05-17T14:53:29.839Z,14.73
2018-05-17T14:56:32.356Z,14.75
2018-05-17T14:59:34.825Z,14.62
2018-05-17T15:02:37.346Z,14.66
2018-05-17T15:05:39.903Z,14.53
2018-05-17T15:08:42.535Z,14.43
2018-05-17T15:11:45.033Z,14.29
2018-05-17T15:14:47.525Z,14.44
2018-05-17T15:17:50.056Z,14.35
2018-05-17T15:20:53.279Z,14.33
2018-05-17T15:23:55.784Z,14.09
2018-05-17T15:26:58.215Z,13.93
2018-05-17T15:30:00.703Z,14.01
2018-05-17T15:33:03.274Z,13.91
2018-05-17T15:36:05.815Z,13.79
2018-05-17T15:39:08.299Z,13.79
2018-05-17T15:42:10.863Z,13.95
2018-05-17T15:45:13.343Z,13.78
2018-05-17T15:48:15.887Z,13.68
2018-05-17T15:51:18.403Z,13.47
2018-05-17T15:54:20.877Z,13.34
2018-05-17T15:57:23.415Z,13.33
2018-05-17T16:00:25.903Z,13.37
2018-05-17T16:03:28.406Z,13.49
2018-05-17T16:06:30.897Z,13.43
2018-05-17T16:09:33.400Z,13.34
2018-05-17T16:12:35.831Z,13.33
2018-05-17T16:15:38.376Z,13.18
2018-05-17T16:18:40.880Z,13.11
2018-05-17T16:21:43.395Z,12.97
2018-05-17T16:24:45.856Z,12.88
2018-05-17T16:27:48.357Z,12.90
2018-05-17T16:30:50.870Z,13.01
2018-05-17T16:33:53.331Z,13.04
2018-05-17T16:36:55.793Z,12.91
2018-05-17T16:39:58.246Z,12.78
2018-05-17T16:43:00.771Z,12.53
2018-05-17T16:46:03.356Z,12.61
2018-05-17T16:49:05.822Z,12.62
2018-05-17T16:55:17.061Z,12.53
2018-05-17T16:58:19.561Z,12.66
2018-05-17T17:01:22.209Z,12.51
2018-05-17T17:04:24.839Z,12.60
2018-05-17T17:07:27.300Z,12.47
2018-05-17T17:10:30.595Z,12.49
2018-05-17T17:13:33.070Z,12.35
2018-05-17T17:16:35.627Z,12.20
2018-05-17T17:19:38.102Z,12.22
2018-05-17T17:22:40.574Z,12.22
2018-05-17T17:25:43.207Z,12.17
2018-05-17T17:28:45.782Z,12.19
2018-05-17T17:31:48.286Z,12.12
2018-05-17T17:34:50.787Z,12.17
2018-05-17T17:37:53.325Z,12.05
2018-05-17T17:40:56.130Z,12.08
2018-05-17T17:43:58.654Z,12.06
2018-05-17T17:47:01.157Z,11.94
2018-05-17T17:50:03.705Z,11.92
2018-05-17T17:53:06.163Z,11.89
2018-05-17T17:56:08.661Z,11.91
2018-05-17T17:59:11.201Z,11.83
2018-05-17T18:02:13.765Z,11.81
2018-05-17T18:05:16.458Z,11.76
2018-05-17T18:08:18.898Z,11.71
2018-05-17T18:11:21.390Z,11.61
2018-05-17T18:14:23.926Z,11.62
2018-05-17T18:17:26.375Z,11.56
2018-05-17T18:20:29.043Z,11.68
2018-05-17T18:23:32.406Z,11.56
2018-05-17T18:26:36.773Z,11.45
2018-05-17T18:29:39.346Z,11.39
2018-05-17T18:32:41.864Z,11.43
2018-05-17T18:35:44.304Z,11.37
2018-05-17T18:38:46.822Z,11.33
2018-05-17T18:41:49.416Z,11.37
2018-05-17T18:44:52.052Z,11.36
2018-05-17T18:47:54.597Z,11.33
2018-05-17T18:50:57.119Z,11.29
2018-05-17T18:53:59.589Z,11.36
2018-05-17T18:57:02.211Z,11.31
2018-05-17T19:00:04.674Z,11.25
2018-05-17T19:03:07.791Z,11.19
2018-05-17T19:06:10.291Z,11.24
2018-05-17T19:09:12.837Z,11.12
2018-05-17T19:12:15.341Z,11.16
2018-05-17T19:15:17.837Z,11.18
2018-05-17T19:18:20.422Z,11.18
2018-05-17T19:21:22.963Z,11.16
2018-05-17T19:24:25.517Z,11.14
2018-05-17T19:27:27.952Z,11.15
2018-05-17T19:30:30.453Z,11.10
2018-05-17T19:33:33.009Z,11.16
2018-05-17T19:36:35.943Z,11.10
2018-05-17T19:39:38.431Z,11.02
2018-05-17T19:42:40.918Z,11.03
2018-05-17T19:45:43.500Z,11.04
2018-05-17T19:48:45.926Z,11.01
2018-05-17T19:51:48.544Z,11.03
2018-05-17T19:54:51.155Z,11.01
2018-05-17T19:57:53.623Z,11.00
2018-05-17T20:00:56.177Z,10.99
2018-05-17T20:03:58.751Z,10.95
2018-05-17T20:07:01.373Z,11.01
2018-05-17T20:10:03.859Z,10.86
2018-05-17T20:13:06.397Z,10.92
2018-05-17T20:16:08.867Z,10.83
2018-05-17T20:19:11.383Z,10.75
2018-05-17T20:22:14.008Z,10.84
2018-05-17T20:25:16.447Z,10.86
2018-05-17T20:28:19.048Z,10.85
2018-05-17T20:31:21.514Z,10.79
2018-05-17T20:34:23.983Z,10.74
2018-05-17T20:37:26.503Z,10.74
2018-05-17T20:40:29.086Z,10.77
2018-05-17T20:43:31.647Z,10.72
2018-05-17T20:46:34.158Z,10.68
2018-05-17T20:49:36.723Z,10.63
2018-05-17T20:52:39.264Z,10.54
2018-05-17T20:55:41.731Z,10.58
2018-05-17T20:58:44.222Z,10.58
2018-05-17T21:01:46.704Z,10.54
2018-05-17T21:04:49.169Z,10.52
2018-05-17T21:07:51.929Z,10.49
2018-05-17T21:10:54.449Z,10.51
2018-05-17T21:13:56.928Z,10.48
2018-05-17T21:17:05.718Z,10.43
2018-05-17T21:20:08.330Z,10.44
2018-05-17T21:23:10.807Z,10.41
2018-05-17T21:26:13.333Z,10.38
2018-05-17T21:29:15.968Z,10.42
2018-05-17T21:32:18.465Z,10.38
2018-05-17T21:35:20.979Z,10.28
2018-05-17T21:38:23.462Z,10.29
2018-05-17T21:41:25.934Z,10.26
2018-05-17T21:44:28.434Z,10.27
2018-05-17T21:47:30.933Z,10.25
2018-05-17T21:50:33.449Z,10.28
2018-05-17T21:53:35.918Z,10.22
2018-05-17T21:56:38.470Z,10.16
2018-05-17T21:59:40.923Z,10.10
2018-05-17T22:02:43.394Z,10.12
2018-05-17T22:05:45.837Z,10.09
2018-05-17T22:08:48.455Z,10.12
2018-05-17T22:11:50.900Z,10.04
2018-05-17T22:14:53.408Z,10.05
2018-05-17T22:17:55.841Z,10.00
2018-05-17T22:20:58.314Z,9.96
2018-05-17T22:24:00.782Z,9.96
2018-05-17T22:27:03.283Z,9.89
2018-05-17T22:30:05.745Z,9.84
2018-05-17T22:33:08.245Z,9.86
2018-05-17T22:36:10.746Z,9.85
2018-05-17T22:39:13.220Z,9.80
2018-05-17T22:42:15.790Z,9.78
2018-05-17T22:45:18.176Z,9.68
2018-05-17T22:48:20.720Z,9.65
2018-05-17T22:51:23.218Z,9.68
2018-05-17T22:54:25.740Z,9.68
2018-05-17T22:57:39.948Z,9.65
2018-05-17T23:00:42.401Z,9.69
2018-05-17T23:03:44.864Z,9.69
2018-05-17T23:06:47.361Z,9.69
2018-05-17T23:09:49.834Z,9.60
2018-05-17T23:12:52.284Z,9.52
2018-05-17T23:15:54.749Z,9.55
2018-05-17T23:18:57.247Z,9.54
2018-05-17T23:21:59.713Z,9.50
2018-05-17T23:25:02.195Z,9.48
2018-05-17T23:28:04.675Z,9.48
2018-05-17T23:31:07.155Z,9.44
2018-05-17T23:34:09.706Z,9.40
2018-05-17T23:37:21.069Z,9.35
2018-05-17T23:40:35.360Z,9.26
2018-05-17T23:43:37.846Z,9.22
2018-05-17T23:46:40.295Z,9.25
2018-05-17T23:49:42.765Z,9.22
2018-05-17T23:52:45.287Z,9.20
2018-05-17T23:55:47.841Z,9.17
2018-05-17T23:58:50.360Z,9.16
